Pagrindinis puslapis
METAR-TAF:

METAR-TAF

Oro uostai :

Beirutas, Libanas

platuma: 33-49N, ilguma: 035-29E, Aukštis: 29 m

Dabartinis oras

Ataskaita buvo paskelbta 17 minutes, ne 09:00 UTC
Vėjas 7 kt iš Šiaurės
Temperatūra 25°C
Drėgmė 47%
Slėgis 1019 hPa
Matomumas: 8000 m

METAR: OLBA 270900Z 35007KT 8000 NSC 25/13 Q1019 NOSIG

Laikas: 12:17 (09:17 UTC)

Prognozė

Ataskaita buvo paskelbta 5 valandos ir 17 minutes, ne 04:00 UTC
Prognozė galioja nuo 27 metu 06 UTC su 28 metu 12 UTC
Vėjas 10 kt iš Šiaurės/Šiaurės Rytų
Matomumas 10 km arba daugiau
nėra debesų žemiau 1500 m ir nėra kamuolinių lietaus debesų
Tapsmas
nuo 27 metu 18 UTC su 27 metu 21 UTC
Vėjas 8 kt iš Rytų
Tapsmas
nuo 28 metu 00 UTC su 28 metu 03 UTC
Matomumas: 8000 m
Mažai debesys ne aukštis 2700 ft
Tapsmas
nuo 28 metu 06 UTC su 28 metu 09 UTC
Vėjas 10 kt iš Šiaurės
Matomumas 10 km arba daugiau
nėra debesų žemiau 1500 m ir nėra kamuolinių lietaus debesų

TAF: OLBA 270400Z 2706/2812 02010KT CAVOK BECMG 2718/2721 10008KT BECMG 2800/2803 8000 FEW027 BECMG 2806/2809 01010KT CAVOK

Orai ataskaitas ir orų prognozės (METAR, TAF).

turimą stotys yra geltonos ir raudonos taškus žemėlapyje.

Perkelti pele per norėdami pamatyti stoties vardą.

Tada spustelėkite, norėdami matyti oro stebėjimo ir prognozės.

Norėdami pakeisti žemėlapį: spustelėkite ant žalios mygtukų su juodo kryžiaus žemyn,; žalią mygtuką su brūkšneliu, jei norite nutolinti; arba žalių rodyklių gretimoms žemėlapius.


METAR-TAF: